Time;durP1;ratioP1;P1;durP2;ratioP2;P2;SDS_P1;SDS_P2;PMS_P1;PMS_P2;Temp;Humidity;BMP_temperature;BMP_pressure;BME280_temperature;BME280_humidity;BME280_pressure;Samples;Min_cycle;Max_cycle;Signal;HPM_P1;HPM_P2
2023/01/04 00:01:49;;;;;;;5.80;2.07;;;;;;;;;;5004291;28;20187;-54
2023/01/04 00:04:16;;;;;;;3.07;1.93;;;;;;;;;;4983087;28;20183;-55
2023/01/04 00:06:42;;;;;;;5.90;2.23;;;;;;;;;;5001735;28;20236;-55
2023/01/04 00:09:08;;;;;;;2.83;2.00;;;;;;;;;;5006209;28;20258;-55
2023/01/04 00:11:34;;;;;;;4.73;2.37;;;;;;;;;;5007440;28;20210;-55
2023/01/04 00:14:00;;;;;;;3.70;1.97;;;;;;;;;;5007529;28;20182;-55
2023/01/04 00:16:27;;;;;;;4.10;2.37;;;;;;;;;;5006497;28;20838;-55
2023/01/04 00:18:53;;;;;;;3.80;1.93;;;;;;;;;;5004078;28;20770;-55
2023/01/04 00:21:21;;;;;;;3.60;2.00;;;;;;;;;;5007753;28;20175;-56
2023/01/04 00:23:48;;;;;;;2.17;1.70;;;;;;;;;;5002689;28;20179;-55
2023/01/04 00:26:16;;;;;;;3.70;2.27;;;;;;;;;;5007984;28;20236;-55
2023/01/04 00:28:43;;;;;;;8.37;2.23;;;;;;;;;;5001837;28;20186;-55
2023/01/04 00:31:10;;;;;;;2.97;1.93;;;;;;;;;;5000866;28;20744;-55
2023/01/04 00:33:36;;;;;;;3.43;1.90;;;;;;;;;;5003999;28;20193;-54
2023/01/04 00:36:06;;;;;;;3.40;2.23;;;;;;;;;;5007526;28;20188;-55
2023/01/04 00:38:32;;;;;;;2.00;1.80;;;;;;;;;;5006067;28;20550;-55
2023/01/04 00:40:59;;;;;;;2.37;1.63;;;;;;;;;;5003667;28;20238;-55
2023/01/04 00:43:25;;;;;;;4.07;1.60;;;;;;;;;;5003836;28;20205;-55
2023/01/04 00:45:51;;;;;;;2.60;1.63;;;;;;;;;;5006645;28;20174;-55
2023/01/04 00:48:17;;;;;;;2.92;1.95;;;;;;;;;;5003169;28;21110;-56
2023/01/04 00:50:44;;;;;;;4.60;2.20;;;;;;;;;;5002156;28;20194;-56
2023/01/04 00:53:11;;;;;;;4.57;1.97;;;;;;;;;;5001076;28;20206;-55
2023/01/04 00:55:37;;;;;;;4.03;2.40;;;;;;;;;;5007678;28;20222;-55
2023/01/04 00:58:03;;;;;;;2.27;2.07;;;;;;;;;;5006990;28;20210;-55
2023/01/04 01:00:29;;;;;;;3.93;2.13;;;;;;;;;;4999569;28;20637;-55
2023/01/04 01:02:55;;;;;;;5.40;2.00;;;;;;;;;;5005034;28;20673;-56
2023/01/04 01:05:21;;;;;;;2.13;1.60;;;;;;;;;;5001984;28;20170;-55
2023/01/04 01:07:47;;;;;;;2.87;1.90;;;;;;;;;;4995558;28;20185;-56
2023/01/04 01:10:13;;;;;;;3.53;1.80;;;;;;;;;;5001808;28;20189;-56
2023/01/04 01:12:39;;;;;;;1.57;1.47;;;;;;;;;;5003913;28;20178;-56
2023/01/04 01:15:06;;;;;;;2.37;1.67;;;;;;;;;;5003800;28;20175;-56
2023/01/04 01:17:33;;;;;;;4.50;1.83;;;;;;;;;;4982619;28;20211;-56
2023/01/04 01:19:59;;;;;;;3.90;2.30;;;;;;;;;;5008801;28;20183;-56
2023/01/04 01:22:25;;;;;;;4.33;2.03;;;;;;;;;;5005332;28;20186;-56
2023/01/04 01:24:51;;;;;;;3.60;1.80;;;;;;;;;;5004483;28;20170;-56
2023/01/04 01:27:17;;;;;;;2.67;1.80;;;;;;;;;;5005720;28;20183;-56
2023/01/04 01:29:43;;;;;;;3.67;1.80;;;;;;;;;;5003065;28;20241;-56
2023/01/04 01:32:09;;;;;;;2.20;1.80;;;;;;;;;;5002735;28;20763;-55
2023/01/04 01:34:35;;;;;;;3.30;1.90;;;;;;;;;;5006188;28;20515;-56
2023/01/04 01:37:01;;;;;;;4.10;1.80;;;;;;;;;;5004159;28;20186;-56
2023/01/04 01:39:28;;;;;;;3.17;1.90;;;;;;;;;;5004691;28;20657;-56
2023/01/04 01:41:54;;;;;;;5.50;2.00;;;;;;;;;;5004101;28;20186;-55
2023/01/04 01:44:38;;;;;;;3.40;2.00;;;;;;;;;;5001939;28;20179;-53
2023/01/04 01:47:04;;;;;;;3.73;1.90;;;;;;;;;;4999967;28;20182;-53
2023/01/04 01:49:38;;;;;;;4.50;2.40;;;;;;;;;;5006484;28;20174;-54
2023/01/04 01:52:12;;;;;;;3.10;1.90;;;;;;;;;;5003986;28;20185;-53
2023/01/04 01:54:41;;;;;;;2.53;1.60;;;;;;;;;;5001877;28;20210;-54
2023/01/04 01:57:09;;;;;;;1.70;1.60;;;;;;;;;;5003498;28;20305;-54
2023/01/04 01:59:37;;;;;;;3.63;1.80;;;;;;;;;;4992878;28;20190;-54
2023/01/04 02:02:03;;;;;;;2.27;1.60;;;;;;;;;;5002466;28;20189;-53
2023/01/04 02:04:30;;;;;;;1.97;1.60;;;;;;;;;;4999649;28;20634;-53
2023/01/04 02:06:57;;;;;;;5.23;1.83;;;;;;;;;;5001180;28;20178;-53
2023/01/04 02:09:23;;;;;;;5.47;2.13;;;;;;;;;;5000093;28;20665;-53
2023/01/04 02:11:49;;;;;;;2.90;1.93;;;;;;;;;;5009396;28;20206;-53
2023/01/04 02:14:27;;;;;;;4.27;1.97;;;;;;;;;;4980303;28;20191;-53
2023/01/04 02:16:55;;;;;;;3.60;2.10;;;;;;;;;;5001978;28;20361;-52
2023/01/04 02:19:33;;;;;;;3.10;1.63;;;;;;;;;;5005286;28;20197;-53
2023/01/04 02:22:18;;;;;;;3.80;1.57;;;;;;;;;;4998337;28;20178;-53
2023/01/04 02:25:03;;;;;;;3.27;1.60;;;;;;;;;;5005863;28;20167;-53
2023/01/04 02:27:29;;;;;;;3.57;1.77;;;;;;;;;;5008822;28;20171;-53
2023/01/04 02:30:05;;;;;;;4.07;1.53;;;;;;;;;;5001183;28;20188;-53
2023/01/04 02:32:51;;;;;;;3.00;1.80;;;;;;;;;;5001517;28;20249;-53
2023/01/04 02:35:20;;;;;;;4.13;1.60;;;;;;;;;;4995872;28;20922;-53
2023/01/04 02:37:51;;;;;;;5.00;1.70;;;;;;;;;;5000160;28;20206;-53
2023/01/04 02:40:31;;;;;;;4.83;2.33;;;;;;;;;;4998248;28;20187;-53
2023/01/04 02:45:53;;;;;;;2.97;1.57;;;;;;;;;;5007264;28;20185;-53
2023/01/04 02:51:04;;;;;;;3.07;1.90;;;;;;;;;;4997338;28;20240;-53
2023/01/04 02:53:38;;;;;;;2.03;1.50;;;;;;;;;;5001556;28;20179;-53
2023/01/04 02:56:11;;;;;;;5.37;2.33;;;;;;;;;;5000328;28;20289;-54
2023/01/04 02:58:56;;;;;;;3.70;2.17;;;;;;;;;;5006325;28;20315;-53
2023/01/04 03:07:11;;;;;;;4.83;2.03;;;;;;;;;;5002405;28;20186;-54
2023/01/04 03:09:39;;;;;;;1.90;1.60;;;;;;;;;;5005458;28;20186;-53
2023/01/04 03:15:11;;;;;;;4.73;1.80;;;;;;;;;;5007051;28;20193;-53
2023/01/04 03:17:41;;;;;;;2.90;1.60;;;;;;;;;;5005274;28;20544;-53
2023/01/04 03:20:09;;;;;;;3.17;2.00;;;;;;;;;;4994216;28;20270;-53
2023/01/04 03:36:54;;;;;;;2.37;1.70;;;;;;;;;;5001228;28;20245;-53
2023/01/04 03:48:32;;;;;;;1.43;1.30;;;;;;;;;;5008533;28;20271;-53
2023/01/04 03:51:02;;;;;;;1.87;1.30;;;;;;;;;;4991678;28;20368;-54
2023/01/04 03:53:29;;;;;;;1.60;1.20;;;;;;;;;;5012317;28;20534;-54
2023/01/04 03:56:23;;;;;;;1.97;1.23;;;;;;;;;;5006498;28;20233;-53
2023/01/04 03:58:50;;;;;;;1.50;1.40;;;;;;;;;;5002614;28;20260;-54
2023/01/04 04:01:19;;;;;;;2.77;2.67;;;;;;;;;;5006846;28;20187;-54
2023/01/04 04:09:15;;;;;;;3.07;1.10;;;;;;;;;;5005680;28;20217;-53
2023/01/04 04:11:41;;;;;;;2.37;1.20;;;;;;;;;;5006856;28;20210;-53
2023/01/04 04:14:07;;;;;;;1.20;1.10;;;;;;;;;;4998537;28;20589;-53
2023/01/04 04:16:33;;;;;;;2.80;2.60;;;;;;;;;;5006626;28;20201;-53
2023/01/04 04:18:59;;;;;;;1.30;1.20;;;;;;;;;;5007620;28;20693;-53
2023/01/04 04:21:25;;;;;;;1.20;1.10;;;;;;;;;;5001408;28;20175;-53
2023/01/04 04:23:51;;;;;;;1.33;1.10;;;;;;;;;;4999000;28;20173;-54
2023/01/04 04:26:17;;;;;;;1.67;1.20;;;;;;;;;;5007582;28;20233;-53
2023/01/04 04:28:43;;;;;;;1.20;1.10;;;;;;;;;;5007315;28;20178;-53
2023/01/04 04:31:09;;;;;;;1.53;1.43;;;;;;;;;;4995653;28;20257;-53
2023/01/04 04:33:35;;;;;;;1.23;1.13;;;;;;;;;;4997414;28;20187;-54
2023/01/04 04:36:01;;;;;;;2.40;1.50;;;;;;;;;;4998406;28;20307;-54
2023/01/04 04:38:27;;;;;;;1.20;1.10;;;;;;;;;;5004573;28;20750;-54
2023/01/04 04:43:38;;;;;;;1.07;1.07;;;;;;;;;;5010239;28;20217;-54
2023/01/04 04:46:04;;;;;;;1.30;0.87;;;;;;;;;;5007470;28;20186;-54
2023/01/04 04:48:30;;;;;;;2.43;1.30;;;;;;;;;;5002181;28;20179;-54
2023/01/04 04:50:56;;;;;;;1.00;1.00;;;;;;;;;;4998942;28;20195;-54
2023/01/04 04:53:22;;;;;;;1.87;0.93;;;;;;;;;;5002019;28;20179;-56
2023/01/04 04:55:52;;;;;;;1.47;1.20;;;;;;;;;;5002798;28;20218;-56
2023/01/04 04:58:18;;;;;;;1.33;1.23;;;;;;;;;;5005245;28;20269;-56
2023/01/04 05:00:44;;;;;;;1.50;1.43;;;;;;;;;;5007259;28;20175;-56
2023/01/04 05:03:10;;;;;;;1.83;1.73;;;;;;;;;;4982251;28;20174;-56
2023/01/04 05:05:36;;;;;;;1.03;1.00;;;;;;;;;;4998863;28;20621;-56
2023/01/04 05:08:02;;;;;;;1.80;1.10;;;;;;;;;;5005498;28;20186;-55
2023/01/04 05:10:28;;;;;;;0.80;0.80;;;;;;;;;;4981356;28;20183;-56
2023/01/04 05:13:00;;;;;;;1.00;1.00;;;;;;;;;;5002277;28;20178;-56
2023/01/04 05:15:34;;;;;;;0.83;0.83;;;;;;;;;;5006701;28;20741;-56
2023/01/04 05:18:00;;;;;;;1.10;1.10;;;;;;;;;;5008837;28;20569;-56
2023/01/04 05:20:26;;;;;;;1.10;1.10;;;;;;;;;;4998345;28;20976;-56
2023/01/04 05:22:52;;;;;;;1.17;1.07;;;;;;;;;;4999337;28;20183;-56
2023/01/04 05:25:19;;;;;;;2.17;2.07;;;;;;;;;;5005463;28;20637;-56
2023/01/04 05:27:45;;;;;;;0.60;0.60;;;;;;;;;;4998846;28;20178;-56
2023/01/04 05:32:57;;;;;;;1.53;0.90;;;;;;;;;;5000010;28;20695;-56
2023/01/04 05:35:23;;;;;;;0.90;0.90;;;;;;;;;;5008137;28;20186;-56
2023/01/04 05:37:49;;;;;;;0.80;0.80;;;;;;;;;;5004972;28;20293;-56
2023/01/04 05:40:15;;;;;;;0.80;0.80;;;;;;;;;;4986197;28;20174;-56
2023/01/04 05:42:41;;;;;;;0.80;0.80;;;;;;;;;;4998660;28;20185;-56
2023/01/04 05:45:07;;;;;;;1.03;1.00;;;;;;;;;;4998553;28;20178;-56
2023/01/04 05:47:34;;;;;;;0.97;0.93;;;;;;;;;;4997775;28;20162;-56
2023/01/04 05:50:00;;;;;;;0.80;0.73;;;;;;;;;;4999198;28;20190;-56
2023/01/04 05:52:26;;;;;;;1.73;1.60;;;;;;;;;;4972558;28;20290;-56
2023/01/04 05:54:52;;;;;;;0.90;0.90;;;;;;;;;;4986422;28;20183;-56
2023/01/04 05:57:19;;;;;;;0.83;0.83;;;;;;;;;;5003373;28;20186;-56
2023/01/04 05:59:45;;;;;;;1.23;1.07;;;;;;;;;;4981910;28;20281;-56
2023/01/04 06:02:16;;;;;;;1.33;0.83;;;;;;;;;;4994194;28;20230;-56
2023/01/04 06:04:42;;;;;;;0.90;0.90;;;;;;;;;;4999439;28;20179;-56
2023/01/04 06:07:08;;;;;;;0.80;0.80;;;;;;;;;;4998768;28;20179;-56
2023/01/04 06:09:34;;;;;;;0.80;0.80;;;;;;;;;;5011490;28;20197;-55
2023/01/04 06:12:00;;;;;;;1.23;1.00;;;;;;;;;;5002002;28;20194;-56
2023/01/04 06:14:26;;;;;;;0.70;0.70;;;;;;;;;;4997577;28;20179;-56
2023/01/04 06:16:52;;;;;;;1.00;0.87;;;;;;;;;;5000139;28;20198;-56
2023/01/04 06:19:18;;;;;;;1.70;1.10;;;;;;;;;;4996519;28;20607;-55
2023/01/04 06:21:44;;;;;;;0.80;0.80;;;;;;;;;;4999977;28;20170;-55
2023/01/04 06:24:11;;;;;;;1.30;1.20;;;;;;;;;;4999784;28;20646;-56
2023/01/04 06:26:37;;;;;;;1.20;1.10;;;;;;;;;;5000265;28;20209;-55
2023/01/04 06:29:04;;;;;;;0.70;0.70;;;;;;;;;;5000929;28;20541;-55
2023/01/04 06:31:30;;;;;;;1.23;1.00;;;;;;;;;;5009325;28;20191;-56
2023/01/04 06:33:56;;;;;;;0.87;0.87;;;;;;;;;;5002428;28;20179;-55
2023/01/04 06:36:22;;;;;;;1.07;1.00;;;;;;;;;;4990937;28;20225;-55
2023/01/04 06:38:48;;;;;;;0.90;0.90;;;;;;;;;;5006758;28;20201;-56
2023/01/04 06:41:15;;;;;;;1.00;1.00;;;;;;;;;;5007857;28;20625;-56
2023/01/04 06:43:41;;;;;;;3.60;0.90;;;;;;;;;;5008708;28;20179;-56
2023/01/04 06:46:07;;;;;;;1.00;1.00;;;;;;;;;;5000458;28;20175;-56
2023/01/04 06:48:33;;;;;;;0.70;0.70;;;;;;;;;;5001765;28;20170;-55
2023/01/04 06:50:59;;;;;;;0.90;0.90;;;;;;;;;;5005295;28;20179;-56
2023/01/04 06:53:25;;;;;;;0.90;0.90;;;;;;;;;;5005084;28;20186;-57
2023/01/04 06:55:51;;;;;;;0.90;0.90;;;;;;;;;;5002354;28;20225;-56
2023/01/04 06:58:17;;;;;;;1.20;0.80;;;;;;;;;;5009284;28;20205;-56
2023/01/04 07:00:45;;;;;;;1.20;0.73;;;;;;;;;;5008516;28;20206;-56
2023/01/04 07:03:11;;;;;;;1.47;1.10;;;;;;;;;;5000718;28;20175;-56
2023/01/04 07:05:37;;;;;;;1.00;1.00;;;;;;;;;;4981078;28;20183;-56
2023/01/04 07:08:03;;;;;;;2.30;1.10;;;;;;;;;;5001568;28;20693;-56
2023/01/04 07:10:29;;;;;;;1.00;1.00;;;;;;;;;;5009203;28;20178;-56
2023/01/04 07:12:55;;;;;;;0.70;0.70;;;;;;;;;;5001601;28;20187;-55
2023/01/04 07:15:21;;;;;;;2.73;1.17;;;;;;;;;;5006161;28;20174;-55
2023/01/04 07:17:48;;;;;;;0.90;0.90;;;;;;;;;;5007813;28;20206;-56
2023/01/04 07:20:14;;;;;;;1.70;0.93;;;;;;;;;;5010455;28;20523;-55
2023/01/04 07:22:40;;;;;;;1.10;1.00;;;;;;;;;;5006730;28;20174;-56
2023/01/04 07:25:06;;;;;;;0.80;0.80;;;;;;;;;;5008803;28;20641;-55
2023/01/04 07:27:32;;;;;;;1.17;0.93;;;;;;;;;;5009439;28;20520;-56
2023/01/04 07:29:58;;;;;;;0.90;0.90;;;;;;;;;;5008073;28;20638;-56
2023/01/04 07:32:24;;;;;;;0.80;0.80;;;;;;;;;;5003183;28;20186;-53
2023/01/04 07:34:57;;;;;;;0.90;0.90;;;;;;;;;;5007725;28;20187;-53
2023/01/04 07:37:23;;;;;;;0.80;0.80;;;;;;;;;;5009218;28;20167;-53
2023/01/04 07:39:49;;;;;;;0.97;0.83;;;;;;;;;;5007304;28;20663;-54
2023/01/04 07:42:17;;;;;;;0.90;0.90;;;;;;;;;;5001539;28;20198;-54
2023/01/04 07:44:43;;;;;;;0.80;0.80;;;;;;;;;;5005547;28;20167;-54
2023/01/04 07:47:09;;;;;;;0.80;0.80;;;;;;;;;;5004102;28;20210;-54
2023/01/04 07:49:42;;;;;;;0.80;0.80;;;;;;;;;;5006659;28;20527;-53
2023/01/04 07:52:08;;;;;;;0.83;0.83;;;;;;;;;;4996897;28;20265;-54
2023/01/04 07:54:34;;;;;;;0.90;0.90;;;;;;;;;;5007459;28;20692;-54
2023/01/04 07:57:00;;;;;;;1.20;1.10;;;;;;;;;;5002100;28;20766;-54
2023/01/04 07:59:26;;;;;;;0.90;0.90;;;;;;;;;;5009338;28;20198;-54
2023/01/04 08:01:52;;;;;;;0.90;0.90;;;;;;;;;;5006779;28;20186;-53
2023/01/04 08:04:21;;;;;;;0.90;0.90;;;;;;;;;;4998485;28;20245;-54
2023/01/04 08:06:48;;;;;;;2.87;1.60;;;;;;;;;;5006969;28;20205;-53
2023/01/04 08:09:14;;;;;;;0.90;0.90;;;;;;;;;;5005608;28;20186;-54
2023/01/04 08:11:40;;;;;;;0.83;0.83;;;;;;;;;;5001410;28;20182;-54
2023/01/04 08:14:06;;;;;;;0.90;0.90;;;;;;;;;;5003514;28;20179;-54
2023/01/04 08:16:33;;;;;;;1.87;1.10;;;;;;;;;;4984187;28;20167;-54
2023/01/04 08:19:00;;;;;;;1.37;1.00;;;;;;;;;;5000260;28;20273;-53
2023/01/04 08:21:27;;;;;;;0.80;0.80;;;;;;;;;;5005201;28;20206;-54
2023/01/04 08:23:54;;;;;;;0.80;0.80;;;;;;;;;;5000799;28;20210;-54
2023/01/04 08:26:20;;;;;;;0.90;0.90;;;;;;;;;;4995813;28;20186;-54
2023/01/04 08:28:46;;;;;;;0.83;0.83;;;;;;;;;;4996011;28;20197;-53
2023/01/04 08:31:17;;;;;;;1.00;1.00;;;;;;;;;;5001889;28;20651;-54
2023/01/04 08:33:44;;;;;;;1.00;1.00;;;;;;;;;;5003235;28;20193;-54
2023/01/04 08:36:18;;;;;;;0.90;0.90;;;;;;;;;;5002635;28;20179;-53
2023/01/04 08:38:44;;;;;;;1.00;1.00;;;;;;;;;;4995157;28;20187;-55
2023/01/04 08:41:10;;;;;;;0.90;0.90;;;;;;;;;;5005311;28;20234;-55
2023/01/04 08:43:36;;;;;;;0.80;0.80;;;;;;;;;;5004285;28;20677;-54
2023/01/04 08:46:03;;;;;;;0.90;0.83;;;;;;;;;;5000505;28;20178;-54
2023/01/04 08:48:30;;;;;;;0.90;0.90;;;;;;;;;;5006198;28;20194;-54
2023/01/04 08:51:03;;;;;;;1.03;1.03;;;;;;;;;;5004087;28;20190;-54
2023/01/04 08:53:30;;;;;;;1.97;1.50;;;;;;;;;;5001972;28;20190;-54
2023/01/04 08:55:58;;;;;;;1.77;1.03;;;;;;;;;;4979307;28;20237;-55
2023/01/04 08:58:24;;;;;;;3.13;0.97;;;;;;;;;;5012732;28;20989;-54
2023/01/04 09:00:50;;;;;;;1.30;1.20;;;;;;;;;;4999253;28;20183;-54
2023/01/04 09:03:16;;;;;;;1.03;0.90;;;;;;;;;;4977901;28;20554;-54
2023/01/04 09:05:43;;;;;;;1.67;1.00;;;;;;;;;;4998325;28;20178;-54
2023/01/04 09:08:09;;;;;;;0.80;0.80;;;;;;;;;;4999316;28;20186;-54
2023/01/04 09:10:39;;;;;;;1.00;0.90;;;;;;;;;;4975767;28;20221;-54
2023/01/04 09:13:08;;;;;;;1.10;1.00;;;;;;;;;;5001049;28;20261;-54
2023/01/04 09:15:34;;;;;;;1.20;1.10;;;;;;;;;;4993641;28;20530;-54
2023/01/04 09:18:00;;;;;;;1.23;1.13;;;;;;;;;;4999921;28;20211;-53
2023/01/04 09:20:26;;;;;;;2.33;1.00;;;;;;;;;;5002030;28;20799;-54
2023/01/04 09:22:52;;;;;;;1.27;1.10;;;;;;;;;;4997443;28;20186;-53
2023/01/04 09:25:18;;;;;;;1.83;1.00;;;;;;;;;;4997217;28;20664;-55
2023/01/04 09:27:44;;;;;;;3.30;1.33;;;;;;;;;;5001443;28;20175;-56
2023/01/04 09:30:10;;;;;;;1.63;1.30;;;;;;;;;;5001896;28;20952;-55
2023/01/04 09:32:37;;;;;;;1.30;1.10;;;;;;;;;;5002119;28;20247;-56
2023/01/04 09:35:03;;;;;;;1.37;0.90;;;;;;;;;;4978090;28;20194;-56
2023/01/04 09:37:29;;;;;;;1.23;1.20;;;;;;;;;;4994663;28;20182;-56
2023/01/04 09:39:55;;;;;;;1.90;0.90;;;;;;;;;;4999503;28;21826;-56
2023/01/04 09:42:21;;;;;;;1.47;1.20;;;;;;;;;;4984996;28;20237;-55
2023/01/04 09:44:52;;;;;;;1.83;0.80;;;;;;;;;;5008308;28;20174;-56
2023/01/04 09:47:32;;;;;;;1.40;1.20;;;;;;;;;;5007272;28;20174;-56
2023/01/04 09:50:17;;;;;;;1.00;1.00;;;;;;;;;;5003460;28;20178;-56
2023/01/04 09:52:46;;;;;;;1.03;1.00;;;;;;;;;;5002543;28;20195;-56
2023/01/04 09:55:21;;;;;;;1.00;1.00;;;;;;;;;;5004162;28;20414;-56
2023/01/04 09:57:57;;;;;;;0.90;0.90;;;;;;;;;;4959087;28;20275;-55
2023/01/04 10:00:25;;;;;;;1.33;1.00;;;;;;;;;;4978597;28;20174;-55
2023/01/04 10:02:56;;;;;;;1.00;1.00;;;;;;;;;;4976502;28;20175;-55
2023/01/04 10:05:25;;;;;;;1.20;1.20;;;;;;;;;;4982180;28;20187;-55
2023/01/04 10:07:51;;;;;;;1.03;1.00;;;;;;;;;;4985513;28;20186;-55
2023/01/04 10:10:23;;;;;;;1.00;1.00;;;;;;;;;;4958669;28;20187;-55
2023/01/04 10:13:18;;;;;;;1.73;1.40;;;;;;;;;;4987278;28;20187;-55
2023/01/04 10:15:52;;;;;;;1.57;1.13;;;;;;;;;;4915922;28;20203;-55
2023/01/04 10:18:40;;;;;;;3.27;1.30;;;;;;;;;;4978388;28;20739;-55
2023/01/04 10:21:27;;;;;;;3.03;1.73;;;;;;;;;;4976126;28;20586;-56
2023/01/04 10:23:59;;;;;;;1.10;1.00;;;;;;;;;;4981419;28;20179;-55
2023/01/04 10:26:28;;;;;;;2.20;1.47;;;;;;;;;;4972590;28;20214;-56
2023/01/04 10:29:10;;;;;;;1.23;1.13;;;;;;;;;;4963312;28;20183;-56
2023/01/04 10:31:43;;;;;;;1.20;1.20;;;;;;;;;;4959534;28;20207;-55
2023/01/04 10:34:09;;;;;;;1.53;1.10;;;;;;;;;;4977903;28;20190;-55
2023/01/04 10:36:36;;;;;;;2.50;1.30;;;;;;;;;;4979655;28;20241;-55
2023/01/04 10:39:03;;;;;;;2.43;1.30;;;;;;;;;;4964175;28;20666;-55
2023/01/04 10:41:36;;;;;;;1.10;1.00;;;;;;;;;;4976378;28;20218;-56
2023/01/04 10:44:05;;;;;;;1.77;1.17;;;;;;;;;;4979862;28;20204;-55
2023/01/04 10:46:37;;;;;;;1.17;1.07;;;;;;;;;;4972965;28;20633;-56
2023/01/04 10:49:36;;;;;;;1.30;1.20;;;;;;;;;;4967372;28;20206;-55
2023/01/04 10:52:09;;;;;;;2.67;1.13;;;;;;;;;;4926736;28;20188;-54
2023/01/04 10:54:47;;;;;;;1.60;1.50;;;;;;;;;;4972856;28;20536;-55
2023/01/04 10:57:20;;;;;;;1.77;1.20;;;;;;;;;;4989698;28;20318;-56
2023/01/04 10:59:53;;;;;;;1.50;1.40;;;;;;;;;;4993383;28;20206;-55
2023/01/04 11:02:22;;;;;;;1.13;1.00;;;;;;;;;;4989356;28;20170;-55
2023/01/04 11:05:02;;;;;;;3.40;1.20;;;;;;;;;;4992277;28;20249;-56
2023/01/04 11:07:33;;;;;;;1.40;1.30;;;;;;;;;;5001408;28;20633;-55
2023/01/04 11:09:59;;;;;;;2.00;1.63;;;;;;;;;;5001947;28;20178;-56
2023/01/04 11:12:26;;;;;;;1.57;1.47;;;;;;;;;;4992551;28;20958;-56
2023/01/04 11:14:52;;;;;;;1.23;1.13;;;;;;;;;;4984161;28;20189;-56
2023/01/04 11:17:19;;;;;;;2.00;1.27;;;;;;;;;;4989188;28;20209;-55
2023/01/04 11:19:45;;;;;;;1.50;1.40;;;;;;;;;;5002865;28;20485;-55
2023/01/04 11:22:30;;;;;;;1.40;1.10;;;;;;;;;;4994088;28;20191;-55
2023/01/04 11:25:00;;;;;;;1.20;1.10;;;;;;;;;;5000052;28;20853;-56
2023/01/04 11:27:28;;;;;;;1.93;1.50;;;;;;;;;;5006907;28;20548;-55
2023/01/04 11:29:57;;;;;;;1.77;1.27;;;;;;;;;;5007773;28;20186;-55
2023/01/04 11:32:35;;;;;;;1.40;1.30;;;;;;;;;;4975686;28;20264;-55
2023/01/04 11:35:01;;;;;;;1.30;1.20;;;;;;;;;;5003210;28;20185;-55
2023/01/04 11:37:29;;;;;;;1.27;1.17;;;;;;;;;;5004345;28;21852;-55
2023/01/04 11:40:13;;;;;;;2.03;1.20;;;;;;;;;;5003228;28;20736;-55
2023/01/04 11:42:39;;;;;;;1.30;1.20;;;;;;;;;;5004587;28;20257;-55
2023/01/04 11:45:06;;;;;;;2.33;1.50;;;;;;;;;;5001415;28;20186;-55
2023/01/04 11:47:32;;;;;;;1.37;1.27;;;;;;;;;;5007579;28;20194;-55
2023/01/04 11:49:58;;;;;;;1.43;1.33;;;;;;;;;;4997105;28;20589;-55
2023/01/04 11:52:27;;;;;;;1.50;1.30;;;;;;;;;;4988817;28;20183;-55
2023/01/04 11:54:53;;;;;;;5.13;1.40;;;;;;;;;;5003212;28;20210;-55
2023/01/04 11:57:19;;;;;;;2.20;1.33;;;;;;;;;;4997158;28;20289;-55
2023/01/04 11:59:45;;;;;;;1.10;1.10;;;;;;;;;;4999350;28;20760;-55
2023/01/04 12:02:18;;;;;;;1.90;1.33;;;;;;;;;;5003801;28;20175;-55
2023/01/04 12:04:44;;;;;;;1.30;1.10;;;;;;;;;;5009545;28;20466;-56
2023/01/04 12:07:30;;;;;;;2.67;1.30;;;;;;;;;;5014305;28;20863;-56
2023/01/04 12:10:01;;;;;;;1.50;1.40;;;;;;;;;;5006789;28;20182;-56
2023/01/04 12:12:30;;;;;;;2.30;1.63;;;;;;;;;;5002018;28;20226;-56
2023/01/04 12:14:56;;;;;;;1.60;1.20;;;;;;;;;;4997577;28;20186;-56
2023/01/04 12:17:25;;;;;;;2.43;1.20;;;;;;;;;;4995854;28;20206;-56
2023/01/04 12:19:55;;;;;;;2.67;1.50;;;;;;;;;;4997274;28;20237;-57
2023/01/04 12:22:24;;;;;;;1.40;1.30;;;;;;;;;;5007502;28;20613;-56
2023/01/04 12:24:52;;;;;;;2.10;1.70;;;;;;;;;;4999055;28;20163;-56
2023/01/04 12:27:18;;;;;;;1.00;1.00;;;;;;;;;;5005206;28;20213;-56
2023/01/04 12:29:52;;;;;;;2.23;1.30;;;;;;;;;;5006404;28;20217;-56
2023/01/04 12:32:18;;;;;;;2.70;1.67;;;;;;;;;;5006736;28;20244;-56
2023/01/04 12:34:46;;;;;;;2.83;1.40;;;;;;;;;;4984732;28;20630;-56
2023/01/04 12:37:31;;;;;;;1.70;1.30;;;;;;;;;;5002891;28;20182;-56
2023/01/04 12:39:57;;;;;;;1.53;1.43;;;;;;;;;;4982035;28;20674;-56
2023/01/04 12:42:26;;;;;;;1.40;1.30;;;;;;;;;;4993636;28;20181;-55
2023/01/04 12:44:52;;;;;;;1.53;1.43;;;;;;;;;;5006984;28;20163;-56
2023/01/04 12:50:02;;;;;;;1.50;1.40;;;;;;;;;;4995210;28;20528;-56
2023/01/04 12:52:28;;;;;;;1.40;1.20;;;;;;;;;;4941872;29;20224;-56
2023/01/04 12:54:56;;;;;;;3.77;1.60;;;;;;;;;;4943906;29;20596;-56
2023/01/04 12:57:32;;;;;;;1.37;1.27;;;;;;;;;;4942598;28;20221;-56
2023/01/04 13:00:02;;;;;;;1.50;1.10;;;;;;;;;;4942313;29;20200;-56
2023/01/04 13:02:30;;;;;;;1.30;1.20;;;;;;;;;;4938479;28;20671;-56
2023/01/04 13:04:57;;;;;;;1.03;1.03;;;;;;;;;;4925002;29;20189;-56
2023/01/04 13:07:42;;;;;;;1.00;1.00;;;;;;;;;;4915653;29;20264;-56
2023/01/04 13:10:26;;;;;;;3.17;1.30;;;;;;;;;;4926033;29;20382;-56
2023/01/04 13:13:11;;;;;;;1.63;1.53;;;;;;;;;;4910400;29;20193;-56
2023/01/04 13:15:49;;;;;;;1.50;1.40;;;;;;;;;;4924957;29;20189;-56
2023/01/04 13:18:34;;;;;;;1.30;1.20;;;;;;;;;;4929151;29;20304;-56
2023/01/04 13:21:10;;;;;;;1.23;1.13;;;;;;;;;;4918437;29;20192;-55
2023/01/04 13:23:36;;;;;;;1.47;1.37;;;;;;;;;;4922702;29;20620;-56
2023/01/04 13:26:21;;;;;;;2.07;1.33;;;;;;;;;;4922358;29;20288;-56
2023/01/04 13:28:47;;;;;;;1.40;1.30;;;;;;;;;;4925051;29;20193;-56
2023/01/04 13:31:13;;;;;;;1.20;1.17;;;;;;;;;;4927418;29;20182;-55
2023/01/04 13:33:39;;;;;;;1.43;1.33;;;;;;;;;;4905771;29;20264;-54
2023/01/04 13:36:11;;;;;;;1.10;1.10;;;;;;;;;;4927085;29;20193;-56
2023/01/04 13:38:39;;;;;;;1.33;1.23;;;;;;;;;;4902121;29;20208;-55
2023/01/04 13:41:16;;;;;;;1.73;1.63;;;;;;;;;;4921733;29;20292;-56
2023/01/04 13:43:51;;;;;;;1.33;1.23;;;;;;;;;;4919298;29;20185;-55
2023/01/04 13:46:32;;;;;;;1.10;1.00;;;;;;;;;;4902025;29;20292;-56
2023/01/04 13:49:00;;;;;;;1.10;1.10;;;;;;;;;;4923274;29;20185;-56
2023/01/04 13:51:29;;;;;;;1.10;1.10;;;;;;;;;;4929010;29;20192;-55
2023/01/04 13:53:59;;;;;;;1.87;1.40;;;;;;;;;;4923499;29;21474;-56
2023/01/04 13:56:33;;;;;;;1.47;1.30;;;;;;;;;;4912047;28;21006;-56
2023/01/04 13:59:02;;;;;;;1.20;1.17;;;;;;;;;;4925396;29;20196;-56
2023/01/04 14:01:30;;;;;;;1.30;1.20;;;;;;;;;;4920945;29;20177;-56
2023/01/04 14:03:57;;;;;;;2.40;1.50;;;;;;;;;;4903260;29;20272;-57
2023/01/04 14:06:23;;;;;;;1.23;1.20;;;;;;;;;;4929625;29;20176;-56
2023/01/04 14:08:51;;;;;;;1.17;1.17;;;;;;;;;;4925116;29;20248;-56
2023/01/04 14:14:30;;;;;;;1.13;1.10;;;;;;;;;;4925043;29;20196;-57
2023/01/04 14:17:15;;;;;;;1.17;1.07;;;;;;;;;;4923670;29;20646;-57
2023/01/04 14:19:54;;;;;;;1.30;1.20;;;;;;;;;;4914108;29;20201;-56
2023/01/04 15:17:34;;;;;;;48.30;9.77;;;;;;;;;;4778462;27;8220195;-78
2023/01/04 15:20:00;;;;;;;66.27;9.60;;;;;;;;;;5098463;28;20192;-82
2023/01/04 15:22:29;;;;;;;32.73;7.63;;;;;;;;;;5070136;28;20234;-78
2023/01/04 15:24:55;;;;;;;46.17;8.37;;;;;;;;;;5097509;28;20184;-78
2023/01/04 15:27:21;;;;;;;31.73;7.43;;;;;;;;;;5076212;28;20179;-80
2023/01/04 15:29:47;;;;;;;17.63;5.70;;;;;;;;;;5083262;28;20619;-80
2023/01/04 15:32:13;;;;;;;23.00;6.60;;;;;;;;;;5072999;28;20190;-79
2023/01/04 15:34:39;;;;;;;17.60;6.17;;;;;;;;;;5098873;28;20421;-83
2023/01/04 15:37:05;;;;;;;16.83;6.43;;;;;;;;;;5069655;28;20204;-77
2023/01/04 15:39:32;;;;;;;13.83;5.43;;;;;;;;;;5078386;28;20610;-79
2023/01/04 15:44:43;;;;;;;14.13;3.83;;;;;;;;;;5097621;28;20656;-78
2023/01/04 15:47:09;;;;;;;11.63;4.23;;;;;;;;;;5084411;28;20675;-79
2023/01/04 15:49:35;;;;;;;10.63;4.40;;;;;;;;;;5084330;28;20183;-80
2023/01/04 15:52:01;;;;;;;11.23;3.63;;;;;;;;;;5065113;28;20210;-78
2023/01/04 15:54:28;;;;;;;9.57;5.00;;;;;;;;;;5067202;28;20526;-78
2023/01/04 15:56:54;;;;;;;15.77;3.87;;;;;;;;;;5076196;28;20211;-80
2023/01/04 15:59:21;;;;;;;5.20;3.70;;;;;;;;;;5076458;28;20177;-78
2023/01/04 16:01:50;;;;;;;5.87;3.70;;;;;;;;;;5080817;28;20337;-79
2023/01/04 16:04:16;;;;;;;6.50;4.23;;;;;;;;;;5078027;28;20187;-79
2023/01/04 16:06:42;;;;;;;4.07;3.23;;;;;;;;;;5087733;28;20176;-79
2023/01/04 16:09:08;;;;;;;6.17;4.07;;;;;;;;;;5072265;28;20191;-79
2023/01/04 16:11:34;;;;;;;7.07;3.20;;;;;;;;;;5071718;28;20176;-79
2023/01/04 16:14:00;;;;;;;8.20;3.40;;;;;;;;;;5095378;28;20602;-80
2023/01/04 16:16:27;;;;;;;5.63;3.90;;;;;;;;;;5072646;28;20220;-78
2023/01/04 16:18:54;;;;;;;4.60;3.10;;;;;;;;;;5058646;28;20204;-81
2023/01/04 16:21:22;;;;;;;5.17;3.37;;;;;;;;;;5058368;28;20279;-80
2023/01/04 16:23:55;;;;;;;3.90;3.20;;;;;;;;;;5056289;28;20180;-78
2023/01/04 16:26:21;;;;;;;5.50;3.40;;;;;;;;;;5060716;28;20689;-82
2023/01/04 16:28:51;;;;;;;8.17;4.07;;;;;;;;;;5042540;28;20268;-77
2023/01/04 16:31:17;;;;;;;5.13;3.73;;;;;;;;;;5036150;28;20200;-79
2023/01/04 16:33:46;;;;;;;7.63;5.00;;;;;;;;;;5052254;28;20794;-79
2023/01/04 16:36:13;;;;;;;5.57;3.67;;;;;;;;;;5042799;28;20266;-79
2023/01/04 16:38:40;;;;;;;7.67;4.40;;;;;;;;;;5047695;28;20271;-79
2023/01/04 16:41:07;;;;;;;6.80;3.53;;;;;;;;;;5040861;28;20559;-80
2023/01/04 16:43:41;;;;;;;6.13;2.97;;;;;;;;;;5044922;28;20177;-80
2023/01/04 16:46:10;;;;;;;6.03;3.23;;;;;;;;;;5038400;28;20192;-79